createdAt,value
2023-03-31T00:00:58.217Z,100647.47
2023-03-31T00:02:07.495Z,100626.63
2023-03-31T00:03:10.425Z,100642.28
2023-03-31T00:04:14.072Z,100650.13
2023-03-31T00:05:18.284Z,100640.84
2023-03-31T00:06:20.262Z,100657.13
2023-03-31T00:07:24.908Z,100647.59
2023-03-31T00:08:30.129Z,100651.09
2023-03-31T00:09:33.541Z,100647.59
2023-03-31T00:10:35.515Z,100646.75
2023-03-31T00:11:37.902Z,100640.72
2023-03-31T00:12:39.677Z,100641.56
2023-03-31T00:13:41.527Z,100645.31
2023-03-31T00:14:44.020Z,100640.84
2023-03-31T00:15:46.177Z,100643.50
2023-03-31T00:16:48.047Z,100638.31
2023-03-31T00:17:49.972Z,100648.84
2023-03-31T00:18:52.099Z,100644.50
2023-03-31T00:19:53.851Z,100645.47
2023-03-31T00:21:26.011Z,100641.13
2023-03-31T00:22:28.222Z,100637.78
2023-03-31T00:23:29.976Z,100644.22
2023-03-31T00:24:33.047Z,100652.31
2023-03-31T00:25:34.901Z,100640.13
2023-03-31T00:26:38.271Z,100639.78
2023-03-31T00:27:44.282Z,100645.25
2023-03-31T00:28:46.429Z,100648.22
2023-03-31T00:29:50.742Z,100649.19
2023-03-31T00:30:53.583Z,100642.19
2023-03-31T00:31:56.176Z,100647.50
2023-03-31T00:32:58.065Z,100616.72
2023-03-31T00:33:59.985Z,100631.34
2023-03-31T00:35:02.484Z,100645.81
2023-03-31T00:36:06.414Z,100642.44
2023-03-31T00:37:10.131Z,100614.34
2023-03-31T00:38:14.040Z,100637.13
2023-03-31T00:39:18.288Z,100645.13
2023-03-31T00:40:20.241Z,100633.50
2023-03-31T00:41:22.624Z,100629.78
2023-03-31T00:42:24.567Z,100634.88
2023-03-31T00:43:37.147Z,100637.38
2023-03-31T00:45:16.556Z,100638.56
2023-03-31T00:46:23.721Z,100631.31
2023-03-31T00:47:29.814Z,100641.22
2023-03-31T00:48:32.429Z,100635.19
2023-03-31T00:49:41.939Z,100637.28
2023-03-31T00:50:53.686Z,100631.47
2023-03-31T00:52:02.419Z,100635.59
2023-03-31T00:53:12.851Z,100633.03
2023-03-31T00:54:15.454Z,100626.41
2023-03-31T00:55:22.509Z,100639.34
2023-03-31T00:56:28.895Z,100629.44
2023-03-31T00:57:36.940Z,100631.59
2023-03-31T00:58:43.942Z,100645.63
2023-03-31T00:59:49.961Z,100640.41
2023-03-31T01:00:53.057Z,100650.94
2023-03-31T01:01:59.386Z,100643.22
2023-03-31T01:03:06.858Z,100648.53
2023-03-31T01:04:10.746Z,100626.31
2023-03-31T01:05:12.873Z,100645.88
2023-03-31T01:06:19.932Z,100647.81
2023-03-31T01:07:44.088Z,100647.56
2023-03-31T01:08:48.154Z,100646.59
2023-03-31T01:09:54.378Z,100646.84
2023-03-31T01:11:01.917Z,100645.16
2023-03-31T01:12:08.457Z,100643.47
2023-03-31T01:13:12.308Z,100651.44
2023-03-31T01:14:14.529Z,100651.56
2023-03-31T01:15:20.238Z,100650.72
2023-03-31T01:16:22.601Z,100650.72
2023-03-31T01:17:25.231Z,100649.00
2023-03-31T01:18:29.152Z,100646.34
2023-03-31T01:20:14.675Z,100643.78
2023-03-31T01:22:00.248Z,100649.97
2023-03-31T01:23:30.999Z,100644.41
2023-03-31T01:24:53.665Z,100639.34
2023-03-31T01:26:43.131Z,100644.41
2023-03-31T01:28:00.387Z,100647.31
2023-03-31T01:29:25.650Z,100643.22
2023-03-31T01:30:33.568Z,100645.97
2023-03-31T01:31:35.371Z,100648.06
2023-03-31T01:32:57.821Z,100639.13
2023-03-31T01:34:08.332Z,100657.09
2023-03-31T01:35:28.857Z,100655.28
2023-03-31T01:37:01.556Z,100654.31
2023-03-31T01:38:12.284Z,100644.66
2023-03-31T01:39:32.812Z,100643.09
2023-03-31T01:40:48.563Z,100643.94
2023-03-31T01:42:06.806Z,100636.22
2023-03-31T01:43:26.576Z,100643.22
2023-03-31T01:44:33.657Z,100637.03
2023-03-31T01:45:50.508Z,100636.31
2023-03-31T01:47:31.812Z,100636.94
2023-03-31T01:48:46.117Z,100632.44
2023-03-31T01:50:02.910Z,100617.25
2023-03-31T01:51:16.445Z,100623.03
2023-03-31T01:52:44.912Z,100629.47
2023-03-31T01:53:58.638Z,100628.25
2023-03-31T01:55:08.303Z,100596.38
2023-03-31T01:56:37.732Z,100629.06
2023-03-31T01:58:05.176Z,100626.56
2023-03-31T01:59:17.173Z,100626.56
2023-03-31T02:00:33.453Z,100628.50
2023-03-31T02:01:57.869Z,100624.25
2023-03-31T02:03:24.471Z,100629.06
2023-03-31T02:04:33.202Z,100621.50
2023-03-31T02:05:44.187Z,100616.66
2023-03-31T02:06:56.302Z,100621.72
2023-03-31T02:08:15.007Z,100624.50
2023-03-31T02:09:22.317Z,100625.34
2023-03-31T02:10:29.607Z,100618.34
2023-03-31T02:11:34.798Z,100620.53
2023-03-31T02:12:39.923Z,100616.91
2023-03-31T02:13:45.532Z,100619.69
2023-03-31T02:14:50.474Z,100580.97
2023-03-31T02:15:58.043Z,100618.00
2023-03-31T02:17:03.929Z,100620.66
2023-03-31T02:18:11.343Z,100622.47
2023-03-31T02:19:19.410Z,100622.47
2023-03-31T02:20:23.013Z,100611.38
2023-03-31T02:21:26.386Z,100618.13
2023-03-31T02:22:33.020Z,100620.06
2023-03-31T02:23:38.445Z,100620.06
2023-03-31T02:24:41.981Z,100621.03
2023-03-31T02:25:53.266Z,100622.72
2023-03-31T02:27:04.716Z,100621.88
2023-03-31T02:28:15.387Z,100626.09
2023-03-31T02:29:17.878Z,100626.09
2023-03-31T02:30:19.804Z,100622.72
2023-03-31T02:31:46.398Z,100624.66
2023-03-31T02:32:48.359Z,100630.44
2023-03-31T02:33:50.518Z,100627.06
2023-03-31T02:34:52.588Z,100627.19
2023-03-31T02:35:54.790Z,100630.09
2023-03-31T02:36:57.313Z,100613.34
2023-03-31T02:38:00.138Z,100631.06
2023-03-31T02:39:15.996Z,100627.56
2023-03-31T02:40:21.741Z,100630.09
2023-03-31T02:41:23.869Z,100633.59
2023-03-31T02:42:25.940Z,100627.19
2023-03-31T02:43:27.797Z,100637.47
2023-03-31T02:44:29.695Z,100641.09
2023-03-31T02:45:48.104Z,100635.78
2023-03-31T02:46:50.729Z,100630.00
2023-03-31T02:47:52.700Z,100639.16
2023-03-31T02:48:58.762Z,100642.88
2023-03-31T02:50:03.130Z,100643.75
2023-03-31T02:51:08.845Z,100612.63
2023-03-31T02:52:30.566Z,100640.22
2023-03-31T02:53:51.295Z,100630.22
2023-03-31T02:55:20.696Z,100634.56
2023-03-31T02:56:33.925Z,100636.97
2023-03-31T02:58:13.119Z,100638.66
2023-03-31T02:59:37.851Z,100629.59
2023-03-31T03:00:45.675Z,100630.81
2023-03-31T03:02:05.652Z,100634.56
2023-03-31T03:03:51.558Z,100627.44
2023-03-31T03:05:26.126Z,100631.53
2023-03-31T03:07:24.725Z,100639.28
2023-03-31T03:08:36.821Z,100632.53
2023-03-31T03:10:15.230Z,100635.69
2023-03-31T03:11:18.344Z,100630.22
2023-03-31T03:12:29.525Z,100634.34
2023-03-31T03:13:42.633Z,100589.69
2023-03-31T03:14:51.083Z,100637.09
2023-03-31T03:16:11.045Z,100639.91
2023-03-31T03:17:21.277Z,100634.59
2023-03-31T03:18:23.115Z,100637.25
2023-03-31T03:19:24.959Z,100635.81
2023-03-31T03:20:26.947Z,100643.06
2023-03-31T03:21:29.544Z,100638.72
2023-03-31T03:22:31.333Z,100624.59
2023-03-31T03:23:34.234Z,100641.47
2023-03-31T03:24:36.129Z,100646.78
2023-03-31T03:25:38.749Z,100647.75
2023-03-31T03:26:40.556Z,100647.91
2023-03-31T03:27:42.348Z,100649.81
2023-03-31T03:28:44.841Z,100646.22
2023-03-31T03:29:47.631Z,100642.69
2023-03-31T03:30:49.463Z,100652.34
2023-03-31T03:31:51.239Z,100648.88
2023-03-31T03:32:54.699Z,100648.88
2023-03-31T03:33:56.728Z,100648.00
2023-03-31T03:34:58.504Z,100648.00
2023-03-31T03:36:00.743Z,100647.16
2023-03-31T03:37:02.832Z,100641.84
2023-03-31T03:38:04.585Z,100647.91
2023-03-31T03:39:08.169Z,100641.84
2023-03-31T03:40:10.533Z,100646.22
2023-03-31T03:41:12.399Z,100643.41
2023-03-31T03:42:14.429Z,100630.16
2023-03-31T03:43:16.179Z,100638.22
2023-03-31T03:44:18.219Z,100638.22
2023-03-31T03:45:20.065Z,100639.19
2023-03-31T03:46:21.860Z,100638.22
2023-03-31T03:47:23.731Z,100640.03
2023-03-31T03:48:26.617Z,100640.03
2023-03-31T03:49:28.488Z,100632.06
2023-03-31T03:50:30.967Z,100638.34
2023-03-31T03:51:32.744Z,100635.56
2023-03-31T03:52:34.556Z,100620.72
2023-03-31T03:53:36.559Z,100621.78
2023-03-31T03:54:38.332Z,100623.25
2023-03-31T03:55:40.460Z,100623.25
2023-03-31T03:56:42.308Z,100621.53
2023-03-31T03:57:44.084Z,100609.47
2023-03-31T03:58:45.880Z,100614.44
2023-03-31T03:59:47.736Z,100617.94
2023-03-31T04:00:49.532Z,100623.25
2023-03-31T04:01:52.793Z,100623.25
2023-03-31T04:02:54.652Z,100625.91
2023-03-31T04:03:56.605Z,100619.63
2023-03-31T04:04:58.559Z,100622.41
2023-03-31T04:06:00.471Z,100621.53
2023-03-31T04:07:02.332Z,100621.53
2023-03-31T04:08:06.162Z,100631.34
2023-03-31T04:09:08.415Z,100623.47
2023-03-31T04:10:10.374Z,100616.22
2023-03-31T04:11:18.988Z,100621.69
2023-03-31T04:12:21.018Z,100623.25
2023-03-31T04:13:22.957Z,100620.59
2023-03-31T04:14:26.028Z,100625.06
2023-03-31T04:15:27.858Z,100626.84
2023-03-31T04:16:30.845Z,100624.19
2023-03-31T04:17:34.918Z,100626.84
2023-03-31T04:18:42.992Z,100635.69
2023-03-31T04:19:44.785Z,100639.19
2023-03-31T04:20:46.672Z,100635.78
2023-03-31T04:21:58.824Z,100633.13
2023-03-31T04:23:00.884Z,100627.09
2023-03-31T04:24:04.789Z,100619.38
2023-03-31T04:25:10.643Z,100635.78
2023-03-31T04:26:14.108Z,100630.47
2023-03-31T04:27:17.174Z,100630.47
2023-03-31T04:28:20.111Z,100631.44
2023-03-31T04:29:23.021Z,100629.75
2023-03-31T04:30:31.171Z,100636.03
2023-03-31T04:31:35.988Z,100626.13
2023-03-31T04:32:38.319Z,100630.00
2023-03-31T04:33:40.247Z,100631.59
2023-03-31T04:34:46.574Z,100635.06
2023-03-31T04:35:52.743Z,100623.72
2023-03-31T04:36:56.186Z,100610.84
2023-03-31T04:38:02.685Z,100625.41
2023-03-31T04:39:04.698Z,100618.41
2023-03-31T04:40:08.120Z,100620.25
2023-03-31T04:41:09.872Z,100616.16
2023-03-31T04:42:11.738Z,100632.66
2023-03-31T04:43:13.909Z,100618.91
2023-03-31T04:44:15.828Z,100622.28
2023-03-31T04:45:18.145Z,100631.22
2023-03-31T04:46:20.397Z,100628.56
2023-03-31T04:47:22.257Z,100632.91
2023-03-31T04:48:24.118Z,100629.53
2023-03-31T04:49:25.920Z,100629.53
2023-03-31T04:50:28.498Z,100612.53
2023-03-31T04:51:30.462Z,100625.56
2023-03-31T04:52:32.229Z,100617.59
2023-03-31T04:53:34.279Z,100630.38
2023-03-31T04:54:36.155Z,100626.03
2023-03-31T04:55:37.923Z,100629.53
2023-03-31T04:56:39.764Z,100592.13
2023-03-31T04:57:42.242Z,100629.53
2023-03-31T04:58:44.641Z,100599.72
2023-03-31T04:59:46.766Z,100623.50
2023-03-31T05:00:48.775Z,100623.50
2023-03-31T05:01:50.742Z,100613.50
2023-03-31T05:02:52.830Z,100623.03
2023-03-31T05:03:54.753Z,100629.78
2023-03-31T05:04:56.572Z,100630.50
2023-03-31T05:05:58.614Z,100634.97
2023-03-31T05:07:00.443Z,100635.81
2023-03-31T05:08:02.656Z,100634.97
2023-03-31T05:09:04.436Z,100629.66
2023-03-31T05:10:06.875Z,100633.88
2023-03-31T05:11:08.859Z,100642.69
2023-03-31T05:12:10.820Z,100630.38
2023-03-31T05:13:12.619Z,100634.50
2023-03-31T05:14:14.439Z,100632.56
2023-03-31T05:15:16.754Z,100633.38
2023-03-31T05:16:18.715Z,100630.47
2023-03-31T05:17:20.567Z,100626.84
2023-03-31T05:18:22.344Z,100639.94
2023-03-31T05:19:24.159Z,100632.69
2023-03-31T05:20:26.091Z,100635.91
2023-03-31T05:21:30.558Z,100623.47
2023-03-31T05:22:35.758Z,100604.41
2023-03-31T05:23:37.761Z,100641.34
2023-03-31T05:24:39.610Z,100626.47
2023-03-31T05:25:42.373Z,100636.41
2023-03-31T05:26:52.486Z,100629.13
2023-03-31T05:27:54.270Z,100628.63
2023-03-31T05:28:56.232Z,100637.34
2023-03-31T05:29:58.608Z,100629.22
2023-03-31T05:31:01.864Z,100629.09
2023-03-31T05:32:03.912Z,100633.19
2023-03-31T05:33:05.862Z,100636.56
2023-03-31T05:34:07.695Z,100632.69
2023-03-31T05:35:10.768Z,100621.72
2023-03-31T05:36:15.574Z,100640.31
2023-03-31T05:37:17.480Z,100635.59
2023-03-31T05:38:19.344Z,100645.16
2023-03-31T05:39:21.703Z,100634.78
2023-03-31T05:40:23.565Z,100643.94
2023-03-31T05:41:25.417Z,100639.34
2023-03-31T05:42:27.234Z,100641.72
2023-03-31T05:43:29.884Z,100634.47
2023-03-31T05:44:31.880Z,100625.41
2023-03-31T05:45:33.648Z,100623.84
2023-03-31T05:46:35.520Z,100633.84
2023-03-31T05:47:37.399Z,100613.91
2023-03-31T05:48:39.342Z,100617.53
2023-03-31T05:49:41.301Z,100640.47
2023-03-31T05:50:44.129Z,100622.09
2023-03-31T05:51:46.762Z,100641.91
2023-03-31T05:52:48.620Z,100628.03
2023-03-31T05:53:50.922Z,100651.34
2023-03-31T05:54:52.744Z,100641.53
2023-03-31T05:56:02.947Z,100645.75
2023-03-31T05:57:05.081Z,100641.88
2023-03-31T05:58:07.015Z,100636.91
2023-03-31T05:59:09.082Z,100639.06
2023-03-31T06:00:11.736Z,100636.28
2023-03-31T06:01:23.867Z,100619.25
2023-03-31T06:02:26.014Z,100629.72
2023-03-31T06:03:28.181Z,100632.75
2023-03-31T06:04:31.366Z,100641.09
2023-03-31T06:05:34.749Z,100637.44
2023-03-31T06:06:38.139Z,100617.66
2023-03-31T06:07:40.610Z,100624.03
2023-03-31T06:08:44.138Z,100638.16
2023-03-31T06:09:46.698Z,100622.56
2023-03-31T06:10:48.491Z,100633.56
2023-03-31T06:11:53.168Z,100634.41
2023-03-31T06:12:54.993Z,100643.94
2023-03-31T06:13:56.813Z,100631.88
2023-03-31T06:14:58.714Z,100636.66
2023-03-31T06:16:01.337Z,100617.13
2023-03-31T06:17:03.227Z,100626.53
2023-03-31T06:18:07.709Z,100633.03
2023-03-31T06:19:09.552Z,100640.03
2023-03-31T06:20:24.531Z,100639.06
2023-03-31T06:21:30.088Z,100637.00
2023-03-31T06:22:32.168Z,100640.66
2023-03-31T06:23:34.676Z,100635.31
2023-03-31T06:24:36.480Z,100642.72
2023-03-31T06:25:50.402Z,100642.44
2023-03-31T06:26:54.002Z,100645.72
2023-03-31T06:27:56.201Z,100647.50
2023-03-31T06:28:58.205Z,100651.03
2023-03-31T06:30:00.286Z,100648.47
2023-03-31T06:31:07.519Z,100640.66
2023-03-31T06:32:10.042Z,100649.34
2023-03-31T06:33:13.367Z,100640.03
2023-03-31T06:34:15.273Z,100650.31
2023-03-31T06:35:17.107Z,100647.66
2023-03-31T06:36:21.584Z,100647.06
2023-03-31T06:37:23.419Z,100649.47
2023-03-31T06:38:26.304Z,100633.03
2023-03-31T06:39:28.671Z,100645.97
2023-03-31T06:40:30.624Z,100659.13
2023-03-31T06:41:32.577Z,100640.91
2023-03-31T06:42:34.999Z,100644.13
2023-03-31T06:43:36.806Z,100647.66
2023-03-31T06:44:38.592Z,100644.13
2023-03-31T06:45:40.522Z,100643.41
2023-03-31T06:46:43.433Z,100634.00
2023-03-31T06:47:45.507Z,100631.34
2023-03-31T06:48:47.635Z,100633.28
2023-03-31T06:49:49.630Z,100642.59
2023-03-31T06:50:53.662Z,100633.03
2023-03-31T06:51:55.520Z,100646.69
2023-03-31T06:52:57.454Z,100650.44
2023-03-31T06:53:59.391Z,100653.81
2023-03-31T06:55:01.470Z,100652.00
2023-03-31T06:56:05.030Z,100645.09
2023-03-31T06:57:07.051Z,100641.88
2023-03-31T06:58:08.829Z,100638.50
2023-03-31T06:59:10.904Z,100643.16
2023-03-31T07:00:13.377Z,100652.97
2023-03-31T07:01:15.341Z,100649.19
2023-03-31T07:02:17.342Z,100639.53
2023-03-31T07:03:22.535Z,100642.19
2023-03-31T07:04:24.760Z,100642.91
2023-03-31T07:05:28.649Z,100631.09
2023-03-31T07:06:31.358Z,100634.47
2023-03-31T07:07:33.706Z,100650.88
2023-03-31T07:08:36.232Z,100643.75
2023-03-31T07:09:38.063Z,100641.47
2023-03-31T07:10:39.898Z,100652.56
2023-03-31T07:11:41.765Z,100644.59
2023-03-31T07:12:43.589Z,100643.75
2023-03-31T07:13:45.504Z,100647.41
2023-03-31T07:14:47.393Z,100629.13
2023-03-31T07:15:49.439Z,100654.25
2023-03-31T07:16:51.573Z,100659.47
2023-03-31T07:18:02.551Z,100646.78
2023-03-31T07:19:05.961Z,100670.00
2023-03-31T07:20:15.523Z,100659.34
2023-03-31T07:21:17.362Z,100654.75
2023-03-31T07:22:19.446Z,100615.44
2023-03-31T07:23:21.462Z,100639.25
2023-03-31T07:24:23.291Z,100654.03
2023-03-31T07:25:25.477Z,100646.03
2023-03-31T07:26:27.807Z,100622.38
2023-03-31T07:27:29.599Z,100641.94
2023-03-31T07:28:32.032Z,100646.75
2023-03-31T07:29:33.888Z,100661.75
2023-03-31T07:30:35.826Z,100651.09
2023-03-31T07:31:37.638Z,100648.44
2023-03-31T07:32:41.224Z,100659.09
2023-03-31T07:33:43.508Z,100668.75
2023-03-31T07:34:45.389Z,100664.16
2023-03-31T07:35:56.630Z,100659.81
2023-03-31T07:37:06.272Z,100667.38
2023-03-31T07:38:12.521Z,100656.88
2023-03-31T07:39:14.316Z,100662.91
2023-03-31T07:40:23.596Z,100658.69
2023-03-31T07:41:26.402Z,100659.38
2023-03-31T07:42:28.228Z,100667.38
2023-03-31T07:43:30.101Z,100666.56
2023-03-31T07:44:34.599Z,100664.88
2023-03-31T07:45:36.745Z,100649.16
2023-03-31T07:46:39.798Z,100639.16
2023-03-31T07:47:43.336Z,100649.59
2023-03-31T07:48:47.282Z,100652.25
2023-03-31T07:49:49.146Z,100653.09
2023-03-31T07:50:51.990Z,100657.44
2023-03-31T07:52:02.588Z,100650.16
2023-03-31T07:53:04.500Z,100654.53
2023-03-31T07:54:06.332Z,100652.81
2023-03-31T07:55:09.154Z,100646.69
2023-03-31T07:56:11.156Z,100646.69
2023-03-31T07:57:14.292Z,100646.22
2023-03-31T07:58:16.274Z,100652.72
2023-03-31T07:59:18.398Z,100654.41
2023-03-31T08:00:21.327Z,100657.88
2023-03-31T08:01:26.000Z,100655.22
2023-03-31T08:02:28.344Z,100654.13
2023-03-31T08:03:32.065Z,100648.94
2023-03-31T08:04:34.129Z,100657.78
2023-03-31T08:05:36.214Z,100656.91
2023-03-31T08:06:39.014Z,100657.78
2023-03-31T08:07:42.849Z,100650.88
2023-03-31T08:08:44.679Z,100659.34
2023-03-31T08:09:47.459Z,100651.47
2023-03-31T08:10:49.593Z,100641.34
2023-03-31T08:11:51.608Z,100649.53
2023-03-31T08:12:53.846Z,100648.53
2023-03-31T08:13:55.846Z,100648.53
2023-03-31T08:14:57.715Z,100650.22
2023-03-31T08:15:59.535Z,100622.53
2023-03-31T08:17:01.371Z,100651.09
2023-03-31T08:18:04.387Z,100654.59
2023-03-31T08:19:06.751Z,100649.25
2023-03-31T08:20:10.617Z,100640.28
2023-03-31T08:21:12.707Z,100641.97
2023-03-31T08:22:14.564Z,100656.97
2023-03-31T08:23:16.526Z,100639.72
2023-03-31T08:24:19.248Z,100652.50
2023-03-31T08:25:21.413Z,100654.31
2023-03-31T08:26:26.889Z,100641.41
2023-03-31T08:27:28.743Z,100645.34
2023-03-31T08:28:30.690Z,100651.38
2023-03-31T08:29:32.442Z,100651.28
2023-03-31T08:30:34.698Z,100647.75
2023-03-31T08:31:36.601Z,100656.59
2023-03-31T08:32:38.480Z,100642.84
2023-03-31T08:33:40.454Z,100654.75
2023-03-31T08:34:42.894Z,100655.75
2023-03-31T08:35:44.739Z,100651.13
2023-03-31T08:36:47.384Z,100646.34
2023-03-31T08:37:49.326Z,100655.47
2023-03-31T08:38:51.436Z,100652.38
2023-03-31T08:39:55.864Z,100656.34
2023-03-31T08:41:02.368Z,100650.16
2023-03-31T08:42:13.253Z,100647.25
2023-03-31T08:43:30.404Z,100649.53
2023-03-31T08:44:36.922Z,100645.06
2023-03-31T08:45:47.712Z,100640.34
2023-03-31T08:46:54.082Z,100652.34
2023-03-31T08:48:25.912Z,100653.50
2023-03-31T08:49:31.734Z,100643.66
2023-03-31T08:50:35.832Z,100655.44
2023-03-31T08:51:42.196Z,100648.44
2023-03-31T08:53:23.086Z,100648.88
2023-03-31T08:54:38.326Z,100646.78
2023-03-31T08:55:52.910Z,100650.28
2023-03-31T08:56:54.943Z,100633.16
2023-03-31T08:58:39.564Z,100647.34
2023-03-31T08:59:43.793Z,100643.84
2023-03-31T09:01:02.108Z,100649.44
2023-03-31T09:02:42.276Z,100643.44
2023-03-31T09:04:11.755Z,100643.56
2023-03-31T09:05:32.869Z,100648.78
2023-03-31T09:06:47.708Z,100647.09
2023-03-31T09:08:11.414Z,100636.16
2023-03-31T09:09:30.256Z,100638.22
2023-03-31T09:11:20.169Z,100626.31
2023-03-31T09:12:37.746Z,100633.50
2023-03-31T09:13:47.329Z,100632.66
2023-03-31T09:15:02.238Z,100637.13
2023-03-31T09:16:32.237Z,100640.78
2023-03-31T09:17:41.214Z,100624.63
2023-03-31T09:18:47.189Z,100640.78
2023-03-31T09:20:09.210Z,100637.41
2023-03-31T09:21:19.024Z,100617.47
2023-03-31T09:22:25.649Z,100641.59
2023-03-31T09:23:39.244Z,100639.38
2023-03-31T09:24:52.163Z,100632.34
2023-03-31T09:25:55.947Z,100632.78
2023-03-31T09:27:02.005Z,100640.06
2023-03-31T09:28:09.883Z,100640.78
2023-03-31T09:29:38.651Z,100642.78
2023-03-31T09:30:43.003Z,100640.50
2023-03-31T09:31:46.799Z,100631.09
2023-03-31T09:32:52.614Z,100640.50
2023-03-31T09:34:01.426Z,100638.56
2023-03-31T09:35:25.546Z,100633.22
2023-03-31T09:36:27.807Z,100638.00
2023-03-31T09:37:33.348Z,100639.97
2023-03-31T09:38:36.290Z,100634.63
2023-03-31T09:39:39.263Z,100614.13
2023-03-31T09:40:42.502Z,100631.97
2023-03-31T09:41:49.510Z,100613.69
2023-03-31T09:43:24.940Z,100633.28
2023-03-31T09:44:42.235Z,100626.53
2023-03-31T09:45:52.041Z,100639.84
2023-03-31T09:47:10.827Z,100624.41
2023-03-31T09:48:27.194Z,100638.88
2023-03-31T09:49:34.389Z,100632.72
2023-03-31T09:50:51.646Z,100633.56
2023-03-31T09:52:07.280Z,100643.13
2023-03-31T09:53:18.199Z,100619.25
2023-03-31T09:54:29.615Z,100614.72
2023-03-31T09:55:44.597Z,100636.94
2023-03-31T09:56:53.860Z,100636.94
2023-03-31T09:57:55.966Z,100629.47
2023-03-31T09:59:02.683Z,100636.22
2023-03-31T10:00:19.044Z,100635.13
2023-03-31T10:01:23.323Z,100623.44
2023-03-31T10:02:47.911Z,100638.22
2023-03-31T10:03:52.634Z,100626.84
2023-03-31T10:04:54.811Z,100628.69
2023-03-31T10:06:00.586Z,100635.00
2023-03-31T10:07:05.210Z,100624.56
2023-03-31T10:08:44.702Z,100631.06
2023-03-31T10:09:46.670Z,100613.53
2023-03-31T10:10:54.184Z,100620.41
2023-03-31T10:12:02.560Z,100620.41
2023-03-31T10:13:10.834Z,100626.56
2023-03-31T10:14:15.770Z,100627.44
2023-03-31T10:15:25.748Z,100618.03
2023-03-31T10:16:32.486Z,100618.44
2023-03-31T10:17:53.956Z,100618.44
2023-03-31T10:19:24.664Z,100623.22
2023-03-31T10:20:39.945Z,100619.31
2023-03-31T10:21:46.362Z,100599.91
2023-03-31T10:22:48.209Z,100612.41
2023-03-31T10:23:51.604Z,100604.41
2023-03-31T10:24:53.831Z,100609.59
2023-03-31T10:25:56.014Z,100615.50
2023-03-31T10:26:58.155Z,100599.22
2023-03-31T10:28:02.250Z,100608.50
2023-03-31T10:29:11.830Z,100597.53
2023-03-31T10:30:21.200Z,100610.88
2023-03-31T10:31:27.168Z,100607.25
2023-03-31T10:32:34.720Z,100607.25
2023-03-31T10:33:45.100Z,100610.72
2023-03-31T10:34:47.059Z,100605.13
2023-03-31T10:35:54.617Z,100606.97
2023-03-31T10:36:56.524Z,100604.13
2023-03-31T10:38:04.594Z,100604.28
2023-03-31T10:39:07.788Z,100605.81
2023-03-31T10:40:22.448Z,100604.00
2023-03-31T10:41:27.495Z,100599.38
2023-03-31T10:42:29.377Z,100599.38
2023-03-31T10:43:40.548Z,100608.38
2023-03-31T10:44:42.488Z,100611.75
2023-03-31T10:45:50.399Z,100604.72
2023-03-31T10:46:52.973Z,100600.25
2023-03-31T10:47:57.780Z,100601.06
2023-03-31T10:49:00.438Z,100601.94
2023-03-31T10:50:12.854Z,100603.75
2023-03-31T10:51:26.537Z,100607.81
2023-03-31T10:52:28.455Z,100592.09
2023-03-31T10:53:30.570Z,100599.69
2023-03-31T10:54:32.538Z,100607.69
2023-03-31T10:55:39.843Z,100602.47
2023-03-31T10:56:52.751Z,100601.38
2023-03-31T10:58:11.160Z,100599.41
2023-03-31T10:59:18.838Z,100600.13
2023-03-31T11:00:38.007Z,100589.28
2023-03-31T11:02:09.784Z,100587.31
2023-03-31T11:03:38.895Z,100589.59
2023-03-31T11:04:59.366Z,100590.41
2023-03-31T11:06:29.966Z,100553.06
2023-03-31T11:07:43.734Z,100590.16
2023-03-31T11:09:03.435Z,100593.06
2023-03-31T11:10:23.995Z,100590.16
2023-03-31T11:12:10.606Z,100591.84
2023-03-31T11:13:36.644Z,100591.84
2023-03-31T11:15:13.839Z,100593.38
2023-03-31T11:16:37.567Z,100593.09
2023-03-31T11:17:54.429Z,100589.03
2023-03-31T11:19:03.644Z,100584.84
2023-03-31T11:20:12.933Z,100591.28
2023-03-31T11:21:47.836Z,100588.31
2023-03-31T11:23:00.742Z,100578.50
2023-03-31T11:24:34.132Z,100587.06
2023-03-31T11:25:43.327Z,100583.41
2023-03-31T11:26:45.050Z,100585.38
2023-03-31T11:28:14.726Z,100584.84
2023-03-31T11:29:22.945Z,100584.38
2023-03-31T11:30:52.484Z,100586.22
2023-03-31T11:32:24.778Z,100578.66
2023-03-31T11:33:54.954Z,100539.06
2023-03-31T11:35:04.412Z,100582.84
2023-03-31T11:36:37.069Z,100580.19
2023-03-31T11:37:41.571Z,100583.69
2023-03-31T11:38:58.168Z,100580.63
2023-03-31T11:40:18.148Z,100579.47
2023-03-31T11:41:21.779Z,100582.00
2023-03-31T11:42:29.084Z,100586.78
2023-03-31T11:43:44.802Z,100584.97
2023-03-31T11:44:53.161Z,100579.47
2023-03-31T11:46:03.605Z,100576.97
2023-03-31T11:47:21.978Z,100576.69
2023-03-31T11:48:50.052Z,100572.50
2023-03-31T11:49:59.841Z,100563.34
2023-03-31T11:51:05.609Z,100574.72
2023-03-31T11:52:19.262Z,100577.38
2023-03-31T11:53:27.391Z,100584.53
2023-03-31T11:54:38.010Z,100570.66
2023-03-31T11:55:40.048Z,100578.22
2023-03-31T11:56:42.139Z,100580.06
2023-03-31T11:57:47.025Z,100575.00
2023-03-31T11:58:56.155Z,100578.38
2023-03-31T12:00:09.166Z,100569.78
2023-03-31T12:01:37.889Z,100571.34
2023-03-31T12:02:58.064Z,100563.22
2023-03-31T12:04:17.488Z,100563.22
2023-03-31T12:05:22.178Z,100549.19
2023-03-31T12:06:30.607Z,100552.81
2023-03-31T12:07:40.777Z,100560.84
2023-03-31T12:09:02.002Z,100567.84
2023-03-31T12:10:11.910Z,100560.44
2023-03-31T12:11:48.935Z,100559.56
2023-03-31T12:13:02.576Z,100563.50
2023-03-31T12:14:16.658Z,100561.81
2023-03-31T12:15:25.448Z,100555.63
2023-03-31T12:16:40.286Z,100560.25
2023-03-31T12:17:47.908Z,100559.28
2023-03-31T12:19:08.396Z,100557.31
2023-03-31T12:20:25.444Z,100559.97
2023-03-31T12:21:29.624Z,100553.66
2023-03-31T12:22:39.425Z,100559.16
2023-03-31T12:23:44.938Z,100557.47
2023-03-31T12:24:47.132Z,100550.28
2023-03-31T12:25:57.569Z,100532.47
2023-03-31T12:26:59.581Z,100540.88
2023-03-31T12:28:03.348Z,100541.88
2023-03-31T12:29:20.586Z,100547.50
2023-03-31T12:30:37.531Z,100547.34
2023-03-31T12:31:43.281Z,100546.91
2023-03-31T12:32:55.711Z,100552.09
2023-03-31T12:34:08.592Z,100545.06
2023-03-31T12:35:25.127Z,100545.50
2023-03-31T12:36:55.480Z,100547.19
2023-03-31T12:38:12.144Z,100544.25
2023-03-31T12:39:36.128Z,100542.41
2023-03-31T12:40:41.963Z,100538.75
2023-03-31T12:42:05.480Z,100551.97
2023-03-31T12:43:21.377Z,100543.25
2023-03-31T12:44:58.498Z,100544.25
2023-03-31T12:46:36.809Z,100551.38
2023-03-31T12:48:06.877Z,100546.75
2023-03-31T12:49:16.635Z,100546.03
2023-03-31T12:50:37.028Z,100543.66
2023-03-31T12:51:55.448Z,100546.03
2023-03-31T12:53:16.887Z,100544.66
2023-03-31T12:55:09.758Z,100542.38
2023-03-31T12:56:11.701Z,100545.59
2023-03-31T12:57:17.346Z,100543.50
2023-03-31T12:58:25.178Z,100516.69